sensor_id;sensor_type;location;lat;lon;timestamp;P1;durP1;ratioP1;P2;durP2;ratioP2
41693;SDS011;27377;50.666;9.150;2023-02-22T00:00:16;16.23;;;10.68;;
41693;SDS011;27377;50.666;9.150;2023-02-22T00:02:44;14.70;;;10.68;;
41693;SDS011;27377;50.666;9.150;2023-02-22T00:05:12;14.88;;;9.98;;
41693;SDS011;27377;50.666;9.150;2023-02-22T00:07:40;15.65;;;10.30;;
41693;SDS011;27377;50.666;9.150;2023-02-22T00:10:08;13.00;;;9.65;;
41693;SDS011;27377;50.666;9.150;2023-02-22T00:12:38;13.27;;;9.35;;
41693;SDS011;27377;50.666;9.150;2023-02-22T00:15:04;15.68;;;9.82;;
41693;SDS011;27377;50.666;9.150;2023-02-22T00:17:30;13.33;;;9.63;;
41693;SDS011;27377;50.666;9.150;2023-02-22T00:19:55;12.63;;;9.23;;
41693;SDS011;27377;50.666;9.150;2023-02-22T00:22:21;12.87;;;8.43;;
41693;SDS011;27377;50.666;9.150;2023-02-22T00:24:47;12.07;;;8.10;;
41693;SDS011;27377;50.666;9.150;2023-02-22T00:27:12;10.77;;;7.37;;
41693;SDS011;27377;50.666;9.150;2023-02-22T00:29:38;12.40;;;8.17;;
41693;SDS011;27377;50.666;9.150;2023-02-22T00:32:09;9.38;;;6.93;;
41693;SDS011;27377;50.666;9.150;2023-02-22T00:34:34;10.53;;;6.77;;
41693;SDS011;27377;50.666;9.150;2023-02-22T00:37:00;10.70;;;7.47;;
41693;SDS011;27377;50.666;9.150;2023-02-22T00:39:28;12.52;;;8.07;;
41693;SDS011;27377;50.666;9.150;2023-02-22T00:41:54;14.77;;;9.90;;
41693;SDS011;27377;50.666;9.150;2023-02-22T00:44:20;14.10;;;9.35;;
41693;SDS011;27377;50.666;9.150;2023-02-22T00:46:46;14.55;;;9.15;;
41693;SDS011;27377;50.666;9.150;2023-02-22T00:49:11;16.83;;;9.57;;
41693;SDS011;27377;50.666;9.150;2023-02-22T00:51:37;12.67;;;9.07;;
41693;SDS011;27377;50.666;9.150;2023-02-22T00:54:03;16.35;;;10.15;;
41693;SDS011;27377;50.666;9.150;2023-02-22T00:56:31;15.83;;;10.37;;
41693;SDS011;27377;50.666;9.150;2023-02-22T00:58:58;15.10;;;10.43;;
41693;SDS011;27377;50.666;9.150;2023-02-22T01:01:24;16.35;;;11.13;;
41693;SDS011;27377;50.666;9.150;2023-02-22T01:03:51;16.35;;;10.85;;
41693;SDS011;27377;50.666;9.150;2023-02-22T01:06:17;15.90;;;10.20;;
41693;SDS011;27377;50.666;9.150;2023-02-22T01:08:43;11.57;;;8.13;;
41693;SDS011;27377;50.666;9.150;2023-02-22T01:11:10;12.43;;;8.40;;
41693;SDS011;27377;50.666;9.150;2023-02-22T01:13:36;11.73;;;8.53;;
41693;SDS011;27377;50.666;9.150;2023-02-22T01:16:02;12.05;;;8.90;;
41693;SDS011;27377;50.666;9.150;2023-02-22T01:18:28;14.95;;;9.52;;
41693;SDS011;27377;50.666;9.150;2023-02-22T01:20:54;16.90;;;11.07;;
41693;SDS011;27377;50.666;9.150;2023-02-22T01:23:19;18.33;;;11.70;;
41693;SDS011;27377;50.666;9.150;2023-02-22T01:25:45;15.68;;;10.98;;
41693;SDS011;27377;50.666;9.150;2023-02-22T01:28:11;14.57;;;10.53;;
41693;SDS011;27377;50.666;9.150;2023-02-22T01:30:37;12.23;;;9.10;;
41693;SDS011;27377;50.666;9.150;2023-02-22T01:33:04;13.97;;;9.17;;
41693;SDS011;27377;50.666;9.150;2023-02-22T01:35:32;14.80;;;10.35;;
41693;SDS011;27377;50.666;9.150;2023-02-22T01:38:00;13.33;;;9.30;;
41693;SDS011;27377;50.666;9.150;2023-02-22T01:40:28;13.23;;;9.00;;
41693;SDS011;27377;50.666;9.150;2023-02-22T01:42:56;14.57;;;9.93;;
41693;SDS011;27377;50.666;9.150;2023-02-22T01:48:01;18.17;;;12.75;;
41693;SDS011;27377;50.666;9.150;2023-02-22T01:50:37;13.85;;;9.70;;
41693;SDS011;27377;50.666;9.150;2023-02-22T01:53:05;12.10;;;8.80;;
41693;SDS011;27377;50.666;9.150;2023-02-22T01:55:33;12.93;;;8.73;;
41693;SDS011;27377;50.666;9.150;2023-02-22T01:58:00;14.15;;;9.90;;
41693;SDS011;27377;50.666;9.150;2023-02-22T02:00:26;17.53;;;11.93;;
41693;SDS011;27377;50.666;9.150;2023-02-22T02:02:54;16.73;;;12.15;;
41693;SDS011;27377;50.666;9.150;2023-02-22T02:05:24;18.33;;;12.68;;
41693;SDS011;27377;50.666;9.150;2023-02-22T02:07:52;17.30;;;12.17;;
41693;SDS011;27377;50.666;9.150;2023-02-22T02:10:18;17.50;;;12.18;;
41693;SDS011;27377;50.666;9.150;2023-02-22T02:12:45;15.38;;;11.27;;
41693;SDS011;27377;50.666;9.150;2023-02-22T02:15:16;15.80;;;11.15;;
41693;SDS011;27377;50.666;9.150;2023-02-22T02:17:57;19.33;;;12.57;;
41693;SDS011;27377;50.666;9.150;2023-02-22T02:20:36;18.65;;;12.63;;
41693;SDS011;27377;50.666;9.150;2023-02-22T02:23:28;20.25;;;12.07;;
41693;SDS011;27377;50.666;9.150;2023-02-22T02:29:13;16.77;;;11.55;;
41693;SDS011;27377;50.666;9.150;2023-02-22T02:32:00;19.23;;;11.77;;
41693;SDS011;27377;50.666;9.150;2023-02-22T02:34:57;18.20;;;11.50;;
41693;SDS011;27377;50.666;9.150;2023-02-22T02:37:36;16.25;;;11.20;;
41693;SDS011;27377;50.666;9.150;2023-02-22T02:40:24;15.85;;;10.52;;
41693;SDS011;27377;50.666;9.150;2023-02-22T02:43:09;16.42;;;10.93;;
41693;SDS011;27377;50.666;9.150;2023-02-22T02:46:20;17.63;;;11.30;;
41693;SDS011;27377;50.666;9.150;2023-02-22T02:48:53;18.40;;;11.73;;
41693;SDS011;27377;50.666;9.150;2023-02-22T02:51:26;18.55;;;11.57;;
41693;SDS011;27377;50.666;9.150;2023-02-22T02:53:56;18.30;;;11.57;;
41693;SDS011;27377;50.666;9.150;2023-02-22T02:56:23;17.73;;;11.70;;
41693;SDS011;27377;50.666;9.150;2023-02-22T02:58:50;17.45;;;11.60;;
41693;SDS011;27377;50.666;9.150;2023-02-22T03:01:19;16.23;;;11.38;;
41693;SDS011;27377;50.666;9.150;2023-02-22T03:04:11;17.80;;;11.45;;
41693;SDS011;27377;50.666;9.150;2023-02-22T03:09:18;17.42;;;12.13;;
41693;SDS011;27377;50.666;9.150;2023-02-22T03:12:12;18.75;;;12.18;;
41693;SDS011;27377;50.666;9.150;2023-02-22T03:20:24;21.40;;;13.05;;
41693;SDS011;27377;50.666;9.150;2023-02-22T03:26:07;22.30;;;12.83;;
41693;SDS011;27377;50.666;9.150;2023-02-22T03:28:37;22.85;;;13.82;;
41693;SDS011;27377;50.666;9.150;2023-02-22T03:31:15;25.40;;;14.50;;
41693;SDS011;27377;50.666;9.150;2023-02-22T03:33:49;26.70;;;14.48;;
41693;SDS011;27377;50.666;9.150;2023-02-22T03:36:21;23.00;;;14.50;;
41693;SDS011;27377;50.666;9.150;2023-02-22T03:39:15;20.80;;;14.25;;
41693;SDS011;27377;50.666;9.150;2023-02-22T03:41:44;20.63;;;13.85;;
41693;SDS011;27377;50.666;9.150;2023-02-22T03:44:17;21.42;;;13.75;;
41693;SDS011;27377;50.666;9.150;2023-02-22T03:46:45;24.90;;;13.60;;
41693;SDS011;27377;50.666;9.150;2023-02-22T03:51:58;19.77;;;13.18;;
41693;SDS011;27377;50.666;9.150;2023-02-22T03:54:25;19.45;;;13.20;;
41693;SDS011;27377;50.666;9.150;2023-02-22T03:57:04;18.67;;;13.18;;
41693;SDS011;27377;50.666;9.150;2023-02-22T03:59:34;20.77;;;13.57;;
41693;SDS011;27377;50.666;9.150;2023-02-22T04:02:00;18.23;;;12.50;;
41693;SDS011;27377;50.666;9.150;2023-02-22T04:04:26;18.00;;;12.87;;
41693;SDS011;27377;50.666;9.150;2023-02-22T04:06:51;19.00;;;12.80;;
41693;SDS011;27377;50.666;9.150;2023-02-22T04:09:17;18.83;;;13.15;;
41693;SDS011;27377;50.666;9.150;2023-02-22T04:11:44;19.30;;;13.52;;
41693;SDS011;27377;50.666;9.150;2023-02-22T04:14:09;21.70;;;13.98;;
41693;SDS011;27377;50.666;9.150;2023-02-22T04:16:35;23.42;;;14.88;;
41693;SDS011;27377;50.666;9.150;2023-02-22T04:19:00;26.20;;;16.60;;
41693;SDS011;27377;50.666;9.150;2023-02-22T04:21:26;24.37;;;16.00;;
41693;SDS011;27377;50.666;9.150;2023-02-22T04:23:51;30.50;;;15.93;;
41693;SDS011;27377;50.666;9.150;2023-02-22T04:26:17;22.23;;;14.70;;
41693;SDS011;27377;50.666;9.150;2023-02-22T04:28:42;21.57;;;14.77;;
41693;SDS011;27377;50.666;9.150;2023-02-22T04:31:08;17.10;;;12.37;;
41693;SDS011;27377;50.666;9.150;2023-02-22T04:33:34;13.93;;;10.20;;
41693;SDS011;27377;50.666;9.150;2023-02-22T04:35:59;12.80;;;9.47;;
41693;SDS011;27377;50.666;9.150;2023-02-22T04:38:25;14.90;;;10.87;;
41693;SDS011;27377;50.666;9.150;2023-02-22T04:40:51;14.67;;;10.57;;
41693;SDS011;27377;50.666;9.150;2023-02-22T04:43:17;13.57;;;10.25;;
41693;SDS011;27377;50.666;9.150;2023-02-22T04:45:43;16.90;;;12.10;;
41693;SDS011;27377;50.666;9.150;2023-02-22T04:48:09;16.13;;;11.70;;
41693;SDS011;27377;50.666;9.150;2023-02-22T04:50:41;16.67;;;11.45;;
41693;SDS011;27377;50.666;9.150;2023-02-22T04:53:11;14.05;;;10.48;;
41693;SDS011;27377;50.666;9.150;2023-02-22T04:55:48;15.05;;;11.05;;
41693;SDS011;27377;50.666;9.150;2023-02-22T04:58:14;14.48;;;10.55;;
41693;SDS011;27377;50.666;9.150;2023-02-22T05:00:43;13.60;;;9.80;;
41693;SDS011;27377;50.666;9.150;2023-02-22T05:03:08;12.38;;;9.05;;
41693;SDS011;27377;50.666;9.150;2023-02-22T05:05:34;14.55;;;10.05;;
41693;SDS011;27377;50.666;9.150;2023-02-22T05:07:59;14.38;;;10.05;;
41693;SDS011;27377;50.666;9.150;2023-02-22T05:10:28;17.23;;;12.25;;
41693;SDS011;27377;50.666;9.150;2023-02-22T05:12:54;21.48;;;13.90;;
41693;SDS011;27377;50.666;9.150;2023-02-22T05:15:23;19.55;;;13.43;;
41693;SDS011;27377;50.666;9.150;2023-02-22T05:17:49;18.25;;;13.23;;
41693;SDS011;27377;50.666;9.150;2023-02-22T05:20:26;17.35;;;12.50;;
41693;SDS011;27377;50.666;9.150;2023-02-22T05:23:15;18.10;;;12.07;;
41693;SDS011;27377;50.666;9.150;2023-02-22T05:25:46;17.95;;;12.23;;
41693;SDS011;27377;50.666;9.150;2023-02-22T05:28:12;16.77;;;12.10;;
41693;SDS011;27377;50.666;9.150;2023-02-22T05:30:42;13.90;;;10.10;;
41693;SDS011;27377;50.666;9.150;2023-02-22T05:33:14;14.27;;;9.60;;
41693;SDS011;27377;50.666;9.150;2023-02-22T05:35:40;15.00;;;9.83;;
41693;SDS011;27377;50.666;9.150;2023-02-22T05:38:05;15.77;;;10.63;;
41693;SDS011;27377;50.666;9.150;2023-02-22T05:40:32;15.98;;;10.90;;
41693;SDS011;27377;50.666;9.150;2023-02-22T05:42:58;17.80;;;11.25;;
41693;SDS011;27377;50.666;9.150;2023-02-22T05:45:25;18.58;;;12.35;;
41693;SDS011;27377;50.666;9.150;2023-02-22T05:47:52;15.48;;;10.98;;
41693;SDS011;27377;50.666;9.150;2023-02-22T05:50:19;14.95;;;10.60;;
41693;SDS011;27377;50.666;9.150;2023-02-22T05:52:45;15.63;;;10.98;;
41693;SDS011;27377;50.666;9.150;2023-02-22T05:55:16;15.18;;;10.50;;
41693;SDS011;27377;50.666;9.150;2023-02-22T05:57:43;18.65;;;11.20;;
41693;SDS011;27377;50.666;9.150;2023-02-22T06:00:09;17.17;;;11.63;;
41693;SDS011;27377;50.666;9.150;2023-02-22T06:02:42;17.67;;;12.23;;
41693;SDS011;27377;50.666;9.150;2023-02-22T06:05:07;16.30;;;11.73;;
41693;SDS011;27377;50.666;9.150;2023-02-22T06:07:33;17.13;;;12.15;;
41693;SDS011;27377;50.666;9.150;2023-02-22T06:10:02;15.30;;;10.10;;
41693;SDS011;27377;50.666;9.150;2023-02-22T06:12:35;17.25;;;11.65;;
41693;SDS011;27377;50.666;9.150;2023-02-22T06:15:01;20.38;;;12.27;;
41693;SDS011;27377;50.666;9.150;2023-02-22T06:17:27;20.83;;;14.20;;
41693;SDS011;27377;50.666;9.150;2023-02-22T06:19:54;21.17;;;13.55;;
41693;SDS011;27377;50.666;9.150;2023-02-22T06:22:19;21.73;;;14.73;;
41693;SDS011;27377;50.666;9.150;2023-02-22T06:24:45;21.23;;;14.60;;
41693;SDS011;27377;50.666;9.150;2023-02-22T06:27:13;22.23;;;14.90;;
41693;SDS011;27377;50.666;9.150;2023-02-22T06:29:44;21.38;;;14.57;;
41693;SDS011;27377;50.666;9.150;2023-02-22T06:32:17;22.27;;;14.68;;
41693;SDS011;27377;50.666;9.150;2023-02-22T06:34:42;22.55;;;14.50;;
41693;SDS011;27377;50.666;9.150;2023-02-22T06:37:11;23.20;;;14.68;;
41693;SDS011;27377;50.666;9.150;2023-02-22T06:39:36;27.55;;;14.70;;
41693;SDS011;27377;50.666;9.150;2023-02-22T06:42:02;24.10;;;15.35;;
41693;SDS011;27377;50.666;9.150;2023-02-22T06:44:28;23.20;;;14.97;;
41693;SDS011;27377;50.666;9.150;2023-02-22T06:46:53;24.53;;;15.37;;
41693;SDS011;27377;50.666;9.150;2023-02-22T06:49:20;23.52;;;14.93;;
41693;SDS011;27377;50.666;9.150;2023-02-22T06:51:45;22.77;;;15.02;;
41693;SDS011;27377;50.666;9.150;2023-02-22T06:54:12;21.57;;;15.20;;
41693;SDS011;27377;50.666;9.150;2023-02-22T06:56:41;22.95;;;15.18;;
41693;SDS011;27377;50.666;9.150;2023-02-22T06:59:06;22.47;;;14.43;;
41693;SDS011;27377;50.666;9.150;2023-02-22T07:01:32;25.45;;;14.88;;
41693;SDS011;27377;50.666;9.150;2023-02-22T07:03:58;21.65;;;14.38;;
41693;SDS011;27377;50.666;9.150;2023-02-22T07:06:26;21.60;;;14.75;;
41693;SDS011;27377;50.666;9.150;2023-02-22T07:08:55;23.70;;;14.88;;
41693;SDS011;27377;50.666;9.150;2023-02-22T07:11:25;23.17;;;15.05;;
41693;SDS011;27377;50.666;9.150;2023-02-22T07:13:51;22.20;;;14.05;;
41693;SDS011;27377;50.666;9.150;2023-02-22T07:16:19;20.92;;;14.32;;
41693;SDS011;27377;50.666;9.150;2023-02-22T07:18:45;21.53;;;13.80;;
41693;SDS011;27377;50.666;9.150;2023-02-22T07:21:13;20.02;;;13.52;;
41693;SDS011;27377;50.666;9.150;2023-02-22T07:23:45;19.83;;;13.93;;
41693;SDS011;27377;50.666;9.150;2023-02-22T07:26:15;20.08;;;13.80;;
41693;SDS011;27377;50.666;9.150;2023-02-22T07:28:44;19.17;;;13.30;;
41693;SDS011;27377;50.666;9.150;2023-02-22T07:31:10;19.60;;;13.60;;
41693;SDS011;27377;50.666;9.150;2023-02-22T07:33:35;20.48;;;13.82;;
41693;SDS011;27377;50.666;9.150;2023-02-22T07:36:04;18.48;;;13.07;;
41693;SDS011;27377;50.666;9.150;2023-02-22T07:38:30;19.10;;;13.57;;
41693;SDS011;27377;50.666;9.150;2023-02-22T07:40:56;16.98;;;12.32;;
41693;SDS011;27377;50.666;9.150;2023-02-22T07:43:26;17.10;;;12.50;;
41693;SDS011;27377;50.666;9.150;2023-02-22T07:45:54;16.80;;;12.23;;
41693;SDS011;27377;50.666;9.150;2023-02-22T07:48:22;15.18;;;11.73;;
41693;SDS011;27377;50.666;9.150;2023-02-22T07:50:49;15.70;;;11.38;;
41693;SDS011;27377;50.666;9.150;2023-02-22T07:53:19;15.95;;;11.75;;
41693;SDS011;27377;50.666;9.150;2023-02-22T07:55:49;15.53;;;11.60;;
41693;SDS011;27377;50.666;9.150;2023-02-22T07:58:17;15.68;;;11.45;;
41693;SDS011;27377;50.666;9.150;2023-02-22T08:00:45;16.27;;;12.10;;
41693;SDS011;27377;50.666;9.150;2023-02-22T08:03:15;15.20;;;11.77;;
41693;SDS011;27377;50.666;9.150;2023-02-22T08:05:45;15.27;;;11.37;;
41693;SDS011;27377;50.666;9.150;2023-02-22T08:08:13;15.38;;;11.73;;
41693;SDS011;27377;50.666;9.150;2023-02-22T08:10:40;16.50;;;12.05;;
41693;SDS011;27377;50.666;9.150;2023-02-22T08:13:06;16.23;;;11.87;;
41693;SDS011;27377;50.666;9.150;2023-02-22T08:15:33;15.98;;;11.27;;
41693;SDS011;27377;50.666;9.150;2023-02-22T08:18:00;17.83;;;11.33;;
41693;SDS011;27377;50.666;9.150;2023-02-22T08:20:27;14.23;;;10.82;;
41693;SDS011;27377;50.666;9.150;2023-02-22T08:22:54;13.90;;;10.50;;
41693;SDS011;27377;50.666;9.150;2023-02-22T08:25:21;13.45;;;10.25;;
41693;SDS011;27377;50.666;9.150;2023-02-22T08:27:50;13.25;;;10.48;;
41693;SDS011;27377;50.666;9.150;2023-02-22T08:30:19;14.50;;;10.38;;
41693;SDS011;27377;50.666;9.150;2023-02-22T08:32:47;14.65;;;10.25;;
41693;SDS011;27377;50.666;9.150;2023-02-22T08:35:14;14.18;;;10.18;;
41693;SDS011;27377;50.666;9.150;2023-02-22T08:37:41;12.82;;;10.07;;
41693;SDS011;27377;50.666;9.150;2023-02-22T08:40:11;12.53;;;9.83;;
41693;SDS011;27377;50.666;9.150;2023-02-22T08:42:38;13.05;;;9.77;;
41693;SDS011;27377;50.666;9.150;2023-02-22T08:45:04;11.50;;;9.10;;
41693;SDS011;27377;50.666;9.150;2023-02-22T08:47:30;10.60;;;8.70;;
41693;SDS011;27377;50.666;9.150;2023-02-22T08:49:55;10.50;;;8.77;;
41693;SDS011;27377;50.666;9.150;2023-02-22T08:52:21;10.57;;;8.70;;
41693;SDS011;27377;50.666;9.150;2023-02-22T08:54:46;11.90;;;9.23;;
41693;SDS011;27377;50.666;9.150;2023-02-22T08:57:12;10.43;;;8.40;;
41693;SDS011;27377;50.666;9.150;2023-02-22T08:59:38;10.32;;;8.50;;
41693;SDS011;27377;50.666;9.150;2023-02-22T09:02:04;10.48;;;8.65;;
41693;SDS011;27377;50.666;9.150;2023-02-22T09:04:30;10.48;;;8.30;;
41693;SDS011;27377;50.666;9.150;2023-02-22T09:06:56;9.93;;;8.30;;
41693;SDS011;27377;50.666;9.150;2023-02-22T09:09:21;11.00;;;8.63;;
41693;SDS011;27377;50.666;9.150;2023-02-22T09:11:47;10.73;;;8.60;;
41693;SDS011;27377;50.666;9.150;2023-02-22T09:14:13;9.70;;;7.97;;
41693;SDS011;27377;50.666;9.150;2023-02-22T09:16:40;10.63;;;8.45;;
41693;SDS011;27377;50.666;9.150;2023-02-22T09:19:07;11.43;;;8.50;;
41693;SDS011;27377;50.666;9.150;2023-02-22T09:21:32;11.77;;;9.55;;
41693;SDS011;27377;50.666;9.150;2023-02-22T09:23:58;11.07;;;9.15;;
41693;SDS011;27377;50.666;9.150;2023-02-22T09:26:32;12.73;;;9.55;;
41693;SDS011;27377;50.666;9.150;2023-02-22T09:28:58;12.23;;;9.70;;
41693;SDS011;27377;50.666;9.150;2023-02-22T09:31:24;11.77;;;9.23;;
41693;SDS011;27377;50.666;9.150;2023-02-22T09:33:50;9.98;;;8.07;;
41693;SDS011;27377;50.666;9.150;2023-02-22T09:36:16;10.25;;;8.20;;
41693;SDS011;27377;50.666;9.150;2023-02-22T09:38:41;10.43;;;7.70;;
41693;SDS011;27377;50.666;9.150;2023-02-22T09:43:40;8.77;;;6.60;;
41693;SDS011;27377;50.666;9.150;2023-02-22T09:46:14;8.50;;;6.53;;
41693;SDS011;27377;50.666;9.150;2023-02-22T09:49:06;8.68;;;6.40;;
41693;SDS011;27377;50.666;9.150;2023-02-22T09:51:54;8.40;;;6.67;;
41693;SDS011;27377;50.666;9.150;2023-02-22T09:54:41;9.32;;;6.88;;
41693;SDS011;27377;50.666;9.150;2023-02-22T09:57:33;9.07;;;6.82;;
41693;SDS011;27377;50.666;9.150;2023-02-22T10:00:14;9.85;;;7.63;;
41693;SDS011;27377;50.666;9.150;2023-02-22T10:02:53;11.63;;;7.90;;
41693;SDS011;27377;50.666;9.150;2023-02-22T10:05:41;10.93;;;8.35;;
41693;SDS011;27377;50.666;9.150;2023-02-22T10:08:12;12.57;;;9.38;;
41693;SDS011;27377;50.666;9.150;2023-02-22T10:10:40;12.52;;;9.32;;
41693;SDS011;27377;50.666;9.150;2023-02-22T10:15:58;13.40;;;10.00;;
41693;SDS011;27377;50.666;9.150;2023-02-22T10:18:39;15.20;;;10.70;;
41693;SDS011;27377;50.666;9.150;2023-02-22T10:26:56;14.65;;;9.68;;
41693;SDS011;27377;50.666;9.150;2023-02-22T10:29:39;14.82;;;9.50;;
41693;SDS011;27377;50.666;9.150;2023-02-22T10:32:13;14.60;;;9.87;;
41693;SDS011;27377;50.666;9.150;2023-02-22T10:34:51;14.45;;;9.90;;
41693;SDS011;27377;50.666;9.150;2023-02-22T10:37:23;12.63;;;8.95;;
41693;SDS011;27377;50.666;9.150;2023-02-22T10:40:11;11.73;;;8.00;;
41693;SDS011;27377;50.666;9.150;2023-02-22T10:42:42;10.98;;;7.47;;
41693;SDS011;27377;50.666;9.150;2023-02-22T10:45:23;11.25;;;8.02;;
41693;SDS011;27377;50.666;9.150;2023-02-22T10:47:53;10.03;;;6.90;;
41693;SDS011;27377;50.666;9.150;2023-02-22T10:50:19;10.63;;;6.33;;
41693;SDS011;27377;50.666;9.150;2023-02-22T10:52:46;10.02;;;6.20;;
41693;SDS011;27377;50.666;9.150;2023-02-22T10:55:13;11.55;;;6.43;;
41693;SDS011;27377;50.666;9.150;2023-02-22T10:57:40;10.30;;;7.07;;
41693;SDS011;27377;50.666;9.150;2023-02-22T11:00:15;10.23;;;6.65;;
41693;SDS011;27377;50.666;9.150;2023-02-22T11:02:59;10.47;;;6.83;;
41693;SDS011;27377;50.666;9.150;2023-02-22T11:05:45;10.63;;;7.55;;
41693;SDS011;27377;50.666;9.150;2023-02-22T11:10:49;10.75;;;7.10;;
41693;SDS011;27377;50.666;9.150;2023-02-22T11:13:33;10.80;;;7.28;;
41693;SDS011;27377;50.666;9.150;2023-02-22T11:16:26;9.90;;;7.07;;
41693;SDS011;27377;50.666;9.150;2023-02-22T11:21:36;11.00;;;7.20;;
41693;SDS011;27377;50.666;9.150;2023-02-22T11:24:04;10.68;;;7.28;;
41693;SDS011;27377;50.666;9.150;2023-02-22T11:26:39;10.57;;;7.35;;
41693;SDS011;27377;50.666;9.150;2023-02-22T11:29:11;10.60;;;7.10;;
41693;SDS011;27377;50.666;9.150;2023-02-22T11:31:43;10.23;;;7.27;;
41693;SDS011;27377;50.666;9.150;2023-02-22T11:34:29;10.77;;;7.17;;
41693;SDS011;27377;50.666;9.150;2023-02-22T11:39:46;11.30;;;7.30;;
41693;SDS011;27377;50.666;9.150;2023-02-22T11:42:30;10.60;;;7.87;;
41693;SDS011;27377;50.666;9.150;2023-02-22T11:45:15;12.17;;;8.23;;
41693;SDS011;27377;50.666;9.150;2023-02-22T11:50:19;11.37;;;7.70;;
41693;SDS011;27377;50.666;9.150;2023-02-22T11:52:51;11.07;;;8.52;;
41693;SDS011;27377;50.666;9.150;2023-02-22T11:55:41;11.65;;;8.20;;
41693;SDS011;27377;50.666;9.150;2023-02-22T12:03:52;11.77;;;8.40;;
41693;SDS011;27377;50.666;9.150;2023-02-22T12:11:50;11.87;;;8.77;;
41693;SDS011;27377;50.666;9.150;2023-02-22T12:14:24;11.75;;;8.57;;
41693;SDS011;27377;50.666;9.150;2023-02-22T12:17:02;12.68;;;8.77;;
41693;SDS011;27377;50.666;9.150;2023-02-22T12:19:51;12.07;;;8.52;;
41693;SDS011;27377;50.666;9.150;2023-02-22T12:22:24;12.23;;;8.97;;
41693;SDS011;27377;50.666;9.150;2023-02-22T12:24:57;12.35;;;8.70;;
41693;SDS011;27377;50.666;9.150;2023-02-22T12:27:39;11.10;;;8.63;;
41693;SDS011;27377;50.666;9.150;2023-02-22T12:30:19;11.35;;;8.73;;
41693;SDS011;27377;50.666;9.150;2023-02-22T12:33:03;12.05;;;9.05;;
41693;SDS011;27377;50.666;9.150;2023-02-22T12:35:37;13.23;;;9.43;;
41693;SDS011;27377;50.666;9.150;2023-02-22T12:38:13;12.45;;;8.73;;
41693;SDS011;27377;50.666;9.150;2023-02-22T12:40:59;13.02;;;8.60;;
41693;SDS011;27377;50.666;9.150;2023-02-22T12:43:40;14.50;;;8.80;;
41693;SDS011;27377;50.666;9.150;2023-02-22T12:46:15;12.00;;;8.52;;
41693;SDS011;27377;50.666;9.150;2023-02-22T12:54:09;12.40;;;8.10;;
41693;SDS011;27377;50.666;9.150;2023-02-22T12:59:31;9.85;;;7.35;;
41693;SDS011;27377;50.666;9.150;2023-02-22T13:05:05;11.98;;;7.78;;
41693;SDS011;27377;50.666;9.150;2023-02-22T13:21:25;9.63;;;7.10;;
41693;SDS011;27377;50.666;9.150;2023-02-22T13:26:59;10.20;;;7.03;;
41693;SDS011;27377;50.666;9.150;2023-02-22T13:29:46;8.52;;;6.22;;
41693;SDS011;27377;50.666;9.150;2023-02-22T13:35:22;9.98;;;6.85;;
41693;SDS011;27377;50.666;9.150;2023-02-22T13:52:16;11.20;;;7.80;;
41693;SDS011;27377;50.666;9.150;2023-02-22T13:54:47;12.95;;;7.43;;
41693;SDS011;27377;50.666;9.150;2023-02-22T13:57:39;10.45;;;7.10;;
41693;SDS011;27377;50.666;9.150;2023-02-22T14:10:52;10.98;;;6.30;;
41693;SDS011;27377;50.666;9.150;2023-02-22T14:13:30;9.48;;;6.90;;
41693;SDS011;27377;50.666;9.150;2023-02-22T14:16:21;10.50;;;7.20;;
41693;SDS011;27377;50.666;9.150;2023-02-22T14:21:31;10.60;;;7.10;;
41693;SDS011;27377;50.666;9.150;2023-02-22T14:24:08;10.20;;;7.20;;
41693;SDS011;27377;50.666;9.150;2023-02-22T14:26:38;10.18;;;7.45;;
41693;SDS011;27377;50.666;9.150;2023-02-22T14:31:57;11.77;;;8.05;;
41693;SDS011;27377;50.666;9.150;2023-02-22T14:34:19;12.20;;;8.40;;
41693;SDS011;27377;50.666;9.150;2023-02-22T14:37:05;13.47;;;8.70;;
41693;SDS011;27377;50.666;9.150;2023-02-22T14:39:34;11.73;;;8.73;;
41693;SDS011;27377;50.666;9.150;2023-02-22T14:47:37;12.82;;;9.07;;
41693;SDS011;27377;50.666;9.150;2023-02-22T14:50:21;12.83;;;8.60;;
41693;SDS011;27377;50.666;9.150;2023-02-22T14:52:59;12.60;;;8.95;;
41693;SDS011;27377;50.666;9.150;2023-02-22T14:55:29;11.63;;;8.90;;
41693;SDS011;27377;50.666;9.150;2023-02-22T14:58:00;11.73;;;8.80;;
41693;SDS011;27377;50.666;9.150;2023-02-22T15:00:45;12.43;;;8.73;;
41693;SDS011;27377;50.666;9.150;2023-02-22T15:03:29;12.43;;;8.75;;
41693;SDS011;27377;50.666;9.150;2023-02-22T15:08:38;11.77;;;8.52;;
41693;SDS011;27377;50.666;9.150;2023-02-22T15:11:10;12.18;;;8.63;;
41693;SDS011;27377;50.666;9.150;2023-02-22T15:13:55;13.68;;;8.63;;
41693;SDS011;27377;50.666;9.150;2023-02-22T15:16:22;12.27;;;8.48;;
41693;SDS011;27377;50.666;9.150;2023-02-22T15:19:02;13.00;;;8.80;;
41693;SDS011;27377;50.666;9.150;2023-02-22T15:21:31;12.13;;;8.88;;
41693;SDS011;27377;50.666;9.150;2023-02-22T15:23:59;11.48;;;8.32;;
41693;SDS011;27377;50.666;9.150;2023-02-22T15:26:31;13.57;;;8.30;;
41693;SDS011;27377;50.666;9.150;2023-02-22T15:29:02;11.60;;;8.32;;
41693;SDS011;27377;50.666;9.150;2023-02-22T15:31:35;12.55;;;8.52;;
41693;SDS011;27377;50.666;9.150;2023-02-22T15:34:36;13.40;;;8.47;;
41693;SDS011;27377;50.666;9.150;2023-02-22T15:36:56;11.63;;;8.30;;
41693;SDS011;27377;50.666;9.150;2023-02-22T15:42:08;12.02;;;8.32;;
41693;SDS011;27377;50.666;9.150;2023-02-22T15:44:43;12.68;;;8.57;;
41693;SDS011;27377;50.666;9.150;2023-02-22T15:47:17;10.73;;;7.90;;
41693;SDS011;27377;50.666;9.150;2023-02-22T15:49:45;12.10;;;8.43;;
41693;SDS011;27377;50.666;9.150;2023-02-22T15:52:40;13.30;;;8.98;;
41693;SDS011;27377;50.666;9.150;2023-02-22T15:55:14;11.25;;;8.32;;
41693;SDS011;27377;50.666;9.150;2023-02-22T15:57:41;11.40;;;8.63;;
41693;SDS011;27377;50.666;9.150;2023-02-22T16:00:16;13.03;;;9.03;;
41693;SDS011;27377;50.666;9.150;2023-02-22T16:02:47;10.30;;;8.20;;
41693;SDS011;27377;50.666;9.150;2023-02-22T16:05:15;13.55;;;9.40;;
41693;SDS011;27377;50.666;9.150;2023-02-22T16:07:48;13.63;;;9.27;;
41693;SDS011;27377;50.666;9.150;2023-02-22T16:10:28;14.75;;;9.70;;
41693;SDS011;27377;50.666;9.150;2023-02-22T16:13:04;13.82;;;10.00;;
41693;SDS011;27377;50.666;9.150;2023-02-22T16:15:49;13.70;;;9.75;;
41693;SDS011;27377;50.666;9.150;2023-02-22T16:18:29;12.93;;;9.60;;
41693;SDS011;27377;50.666;9.150;2023-02-22T16:23:47;12.38;;;8.52;;
41693;SDS011;27377;50.666;9.150;2023-02-22T16:26:22;10.98;;;8.13;;
41693;SDS011;27377;50.666;9.150;2023-02-22T16:28:51;12.45;;;8.85;;
41693;SDS011;27377;50.666;9.150;2023-02-22T16:31:23;11.23;;;8.13;;
41693;SDS011;27377;50.666;9.150;2023-02-22T16:33:55;10.73;;;7.45;;
41693;SDS011;27377;50.666;9.150;2023-02-22T16:36:22;11.07;;;8.07;;
41693;SDS011;27377;50.666;9.150;2023-02-22T16:39:01;11.38;;;8.07;;
41693;SDS011;27377;50.666;9.150;2023-02-22T16:41:31;10.47;;;7.00;;
41693;SDS011;27377;50.666;9.150;2023-02-22T16:43:56;9.73;;;6.82;;
41693;SDS011;27377;50.666;9.150;2023-02-22T16:46:22;10.85;;;7.40;;
41693;SDS011;27377;50.666;9.150;2023-02-22T16:48:47;10.52;;;7.10;;
41693;SDS011;27377;50.666;9.150;2023-02-22T16:51:20;10.82;;;7.35;;
41693;SDS011;27377;50.666;9.150;2023-02-22T16:53:49;10.52;;;7.53;;
41693;SDS011;27377;50.666;9.150;2023-02-22T16:56:18;11.32;;;7.90;;
41693;SDS011;27377;50.666;9.150;2023-02-22T16:58:45;11.10;;;7.75;;